Time;durP1;ratioP1;P1;durP2;ratioP2;P2;SDS_P1;SDS_P2;PMS_P1;PMS_P2;Temp;Humidity;BMP_temperature;BMP_pressure;BME280_temperature;BME280_humidity;BME280_pressure;Samples;Min_cycle;Max_cycle;Signal;HPM_P1;HPM_P2
2023/12/20 00:02:08;;;;;;;2.25;0.50;;;;;;;17.27;61.17;100941.06;20863352;28;20364;-70
2023/12/20 00:12:09;;;;;;;1.08;0.60;;;;;;;17.23;61.18;100933.25;20844451;28;20549;-70
2023/12/20 00:22:11;;;;;;;2.55;0.60;;;;;;;17.25;61.08;100925.91;20838789;28;20111;-70
2023/12/20 00:32:13;;;;;;;1.42;0.57;;;;;;;17.28;61.06;100905.09;20857828;28;20134;-70
2023/12/20 00:42:15;;;;;;;0.98;0.38;;;;;;;17.43;60.48;100902.88;20842480;28;20098;-70
2023/12/20 00:52:17;;;;;;;2.03;0.50;;;;;;;17.50;59.97;100914.84;20838903;28;20752;-70
2023/12/20 01:02:19;;;;;;;1.02;0.40;;;;;;;17.56;59.74;100903.53;20854030;28;20163;-69
2023/12/20 01:12:21;;;;;;;1.35;0.43;;;;;;;17.59;59.10;100902.41;20859284;28;21099;-70
2023/12/20 01:22:23;;;;;;;1.13;0.52;;;;;;;17.60;59.25;100893.34;20860308;28;20048;-70
2023/12/20 01:32:25;;;;;;;1.88;0.68;;;;;;;17.62;59.16;100880.59;20855877;28;20119;-70
2023/12/20 01:42:27;;;;;;;2.20;0.60;;;;;;;17.62;59.00;100872.53;20855747;28;20179;-70
2023/12/20 01:52:29;;;;;;;1.70;0.50;;;;;;;17.65;58.86;100865.03;20844383;28;20110;-71
2023/12/20 02:02:31;;;;;;;1.55;0.70;;;;;;;17.64;58.79;100865.16;20851843;28;20044;-70
2023/12/20 02:12:33;;;;;;;2.47;0.70;;;;;;;17.68;58.60;100853.16;20851507;28;20217;-70
2023/12/20 02:22:35;;;;;;;2.05;0.70;;;;;;;17.68;58.52;100855.84;20852329;28;20075;-71
2023/12/20 02:32:37;;;;;;;1.10;0.50;;;;;;;17.69;58.61;100839.56;20872095;28;20045;-70
2023/12/20 02:42:39;;;;;;;3.05;0.98;;;;;;;17.73;58.33;100850.91;20869230;28;20049;-71
2023/12/20 02:52:42;;;;;;;2.05;0.60;;;;;;;17.76;58.24;100818.31;20864850;28;20056;-70
2023/12/20 03:02:44;;;;;;;1.30;0.57;;;;;;;17.80;58.11;100813.50;20873853;28;20053;-70
2023/12/20 03:12:46;;;;;;;2.20;0.80;;;;;;;17.81;58.05;100799.91;20875551;28;20049;-70
2023/12/20 03:22:48;;;;;;;2.80;0.80;;;;;;;17.88;57.68;100804.75;20850235;28;20073;-70
2023/12/20 03:32:50;;;;;;;1.75;0.68;;;;;;;17.91;57.76;100801.78;20852669;28;20053;-70
2023/12/20 03:42:52;;;;;;;2.88;0.95;;;;;;;17.95;57.43;100795.09;20853480;28;20484;-70
2023/12/20 03:52:53;;;;;;;3.30;1.08;;;;;;;17.83;57.83;100780.91;20859706;28;20053;-70
2023/12/20 04:02:55;;;;;;;2.88;0.90;;;;;;;17.59;58.38;100763.31;20837287;28;20548;-70
2023/12/20 04:12:57;;;;;;;3.05;1.08;;;;;;;17.48;58.72;100780.41;20854125;28;20188;-70
2023/12/20 04:22:59;;;;;;;6.32;0.98;;;;;;;17.44;58.90;100760.13;20835082;28;20052;-71
2023/12/20 04:33:00;;;;;;;4.35;0.93;;;;;;;17.40;58.80;100756.00;20836797;28;20075;-70
2023/12/20 04:43:02;;;;;;;5.75;1.58;;;;;;;17.39;58.84;100747.06;20853447;28;20045;-70
2023/12/20 04:53:04;;;;;;;4.63;0.98;;;;;;;17.38;58.91;100749.91;20841388;28;20466;-70
2023/12/20 05:03:06;;;;;;;3.92;1.30;;;;;;;17.40;58.97;100743.41;20851874;28;20369;-70
2023/12/20 05:13:07;;;;;;;4.22;1.20;;;;;;;17.42;58.78;100750.47;20839087;28;20787;-70
2023/12/20 05:23:09;;;;;;;4.43;1.20;;;;;;;17.39;58.81;100749.75;20829842;28;20053;-70
2023/12/20 05:33:11;;;;;;;4.40;1.23;;;;;;;17.40;58.77;100737.19;20815044;28;20186;-70
2023/12/20 05:43:13;;;;;;;4.07;1.17;;;;;;;17.48;58.49;100744.56;20812103;28;20048;-70
2023/12/20 05:53:15;;;;;;;3.72;1.02;;;;;;;17.59;58.31;100735.50;20812952;28;20172;-70
2023/12/20 06:03:17;;;;;;;4.88;1.13;;;;;;;17.69;57.94;100720.25;20827584;28;20053;-70
2023/12/20 06:13:18;;;;;;;3.65;1.02;;;;;;;17.73;57.71;100718.97;20829591;28;20141;-70
2023/12/20 06:23:20;;;;;;;3.38;1.63;;;;;;;17.75;57.71;100708.06;20825263;28;20053;-70
2023/12/20 06:33:22;;;;;;;3.50;1.85;;;;;;;17.77;57.58;100706.94;20819360;28;20106;-69
2023/12/20 06:43:24;;;;;;;3.28;1.20;;;;;;;17.73;57.34;100708.22;20842714;28;20053;-70
2023/12/20 06:53:44;;;;;;;4.30;1.50;;;;;;;17.77;57.29;100698.00;20829714;28;20412;-70
2023/12/20 07:03:45;;;;;;;4.97;1.35;;;;;;;17.76;57.41;100694.47;20848638;28;20093;-70
2023/12/20 07:13:47;;;;;;;2.40;1.08;;;;;;;17.76;57.25;100683.69;20852528;28;20060;-70
2023/12/20 07:23:50;;;;;;;4.10;1.50;;;;;;;17.75;57.38;100665.84;20847084;28;20040;-70
2023/12/20 07:33:52;;;;;;;5.85;1.83;;;;;;;17.73;57.46;100664.28;20844861;28;20132;-72
2023/12/20 07:43:55;;;;;;;3.95;1.60;;;;;;;17.63;58.58;100658.88;20861050;28;20049;-71
2023/12/20 07:53:57;;;;;;;4.00;1.60;;;;;;;17.79;58.42;100678.03;20808942;28;20056;-70
2023/12/20 08:03:59;;;;;;;2.80;1.38;;;;;;;18.00;58.05;100679.72;20834424;28;20057;-70
2023/12/20 08:14:11;;;;;;;4.78;1.67;;;;;;;18.14;58.03;100680.31;20821445;28;20061;-70
2023/12/20 08:24:27;;;;;;;3.78;1.67;;;;;;;18.33;58.30;100669.50;20836871;28;20517;-70
2023/12/20 08:34:29;;;;;;;5.40;2.00;;;;;;;18.55;58.32;100679.09;20810512;28;20061;-70
2023/12/20 08:44:31;;;;;;;4.32;1.80;;;;;;;18.63;58.31;100667.59;20800216;28;20046;-70
2023/12/20 08:54:33;;;;;;;6.88;2.42;;;;;;;18.78;58.16;100672.50;20816341;28;20607;-69
2023/12/20 09:04:35;;;;;;;8.45;3.10;;;;;;;18.91;61.41;100675.69;20815407;28;20231;-70
2023/12/20 09:14:37;;;;;;;5.47;2.17;;;;;;;18.98;61.07;100665.22;20785004;28;20577;-70
2023/12/20 09:24:39;;;;;;;6.72;2.20;;;;;;;19.02;60.69;100679.25;20799744;28;20065;-71
2023/12/20 09:34:41;;;;;;;6.13;2.03;;;;;;;19.07;60.53;100685.06;20822281;28;20170;-71
2023/12/20 09:44:44;;;;;;;7.38;2.17;;;;;;;19.22;59.85;100686.25;20801662;28;20041;-71
2023/12/20 09:54:49;;;;;;;6.20;1.83;;;;;;;19.31;58.97;100724.13;20814811;28;20063;-71
2023/12/20 10:04:51;;;;;;;4.85;1.85;;;;;;;19.20;58.50;100774.59;20808469;28;20049;-70
2023/12/20 10:14:53;;;;;;;5.75;1.88;;;;;;;19.23;58.25;100801.28;20760000;28;20824;-71
2023/12/20 10:24:56;;;;;;;4.55;1.50;;;;;;;19.21;57.42;100770.91;20777602;28;20052;-70
2023/12/20 10:34:59;;;;;;;3.30;1.08;;;;;;;19.25;57.54;100766.91;20799361;28;20049;-71
2023/12/20 10:45:01;;;;;;;4.13;1.52;;;;;;;19.23;57.63;100751.88;20828794;28;20045;-70
2023/12/20 10:55:03;;;;;;;3.25;1.20;;;;;;;19.31;57.59;100725.00;20838117;28;20737;-70
2023/12/20 11:05:22;;;;;;;3.20;1.05;;;;;;;19.36;57.66;100721.81;20840892;28;20136;-71
2023/12/20 11:15:24;;;;;;;2.67;1.13;;;;;;;19.36;57.27;100735.31;20822914;28;20060;-71
2023/12/20 11:25:27;;;;;;;2.85;0.95;;;;;;;19.25;56.61;100707.53;20811512;28;20075;-71
2023/12/20 11:35:28;;;;;;;3.17;0.88;;;;;;;19.34;56.27;100710.31;20793244;28;20064;-71
2023/12/20 11:45:30;;;;;;;2.20;1.00;;;;;;;19.30;56.31;100706.22;20767739;28;20433;-71
2023/12/20 11:55:33;;;;;;;3.53;1.00;;;;;;;19.28;56.54;100706.41;20782818;28;20239;-71
2023/12/20 12:05:35;;;;;;;3.20;1.02;;;;;;;19.24;56.37;100700.44;20780695;28;20064;-69
2023/12/20 12:15:38;;;;;;;2.40;0.90;;;;;;;19.30;57.14;100673.84;20808400;28;20056;-67
2023/12/20 12:25:40;;;;;;;3.15;1.25;;;;;;;19.45;57.93;100652.59;20815879;28;20057;-67
2023/12/20 12:35:44;;;;;;;;;;;;;;;19.50;58.28;100661.94;20805791;28;20048;-67
2023/12/20 12:45:46;;;;;;;2.65;1.17;;;;;;;19.45;58.64;100656.16;20821533;28;19952;-69
2023/12/20 12:55:48;;;;;;;2.95;0.80;;;;;;;19.44;59.22;100635.53;20807845;28;20556;-68
2023/12/20 13:05:50;;;;;;;4.30;1.00;;;;;;;19.45;59.90;100639.94;20843631;28;20053;-78
2023/12/20 13:15:54;;;;;;;2.85;0.88;;;;;;;19.38;60.14;100641.53;20808279;28;20044;-70
2023/12/20 13:25:56;;;;;;;4.10;1.02;;;;;;;19.48;60.12;100669.34;20811783;28;20053;-78
2023/12/20 13:35:59;;;;;;;3.15;1.27;;;;;;;19.41;61.50;100647.50;20802194;28;20060;-67
2023/12/20 13:46:02;;;;;;;3.70;0.90;;;;;;;19.28;62.72;100639.75;20826230;28;20053;-67
2023/12/20 13:56:04;;;;;;;4.53;1.10;;;;;;;19.16;62.83;100659.88;20816112;28;20429;-68
2023/12/20 14:06:06;;;;;;;4.78;1.00;;;;;;;19.21;62.96;100632.41;20827746;28;20049;-69
2023/12/20 14:16:10;;;;;;;3.40;0.85;;;;;;;19.33;62.26;100638.44;20816412;28;20052;-72
2023/12/20 14:26:14;;;;;;;3.20;0.90;;;;;;;19.37;62.37;100612.84;20772004;28;20057;-68
2023/12/20 14:36:19;;;;;;;1.90;0.68;;;;;;;19.36;61.75;100594.94;20809922;28;20060;-69
2023/12/20 14:46:21;;;;;;;2.50;0.88;;;;;;;19.37;61.52;100602.06;20805713;28;20092;-71
2023/12/20 14:56:23;;;;;;;1.92;0.60;;;;;;;19.26;61.04;100620.16;20811875;28;20072;-67
2023/12/20 15:06:26;;;;;;;3.00;0.70;;;;;;;19.25;60.46;100610.38;20813901;28;20060;-67
2023/12/20 15:16:28;;;;;;;1.48;0.68;;;;;;;19.24;60.11;100587.09;20810906;28;20525;-69
2023/12/20 15:26:31;;;;;;;2.45;0.70;;;;;;;19.30;60.17;100568.59;20783354;28;20416;-71
2023/12/20 15:36:32;;;;;;;0.88;0.47;;;;;;;19.33;60.45;100579.06;20799787;28;20056;-69
2023/12/20 15:46:34;;;;;;;3.63;0.77;;;;;;;19.34;60.56;100569.97;20807395;28;20049;-67
2023/12/20 15:56:36;;;;;;;4.53;1.25;;;;;;;19.28;67.48;100545.28;20778050;28;20052;-71
2023/12/20 16:06:38;;;;;;;2.05;0.68;;;;;;;19.27;67.00;100538.19;20785315;28;20477;-68
2023/12/20 16:16:40;;;;;;;1.92;1.00;;;;;;;19.09;66.75;100529.28;20788997;28;20053;-71
2023/12/20 16:26:42;;;;;;;2.40;0.65;;;;;;;18.96;68.48;100506.16;20772898;28;20520;-70
2023/12/20 16:36:52;;;;;;;1.73;0.70;;;;;;;18.87;68.71;100482.81;20781526;28;20060;-68
2023/12/20 16:46:54;;;;;;;5.13;1.27;;;;;;;19.07;67.68;100474.63;20773426;28;20056;-71
2023/12/20 16:56:56;;;;;;;3.63;0.70;;;;;;;19.12;67.21;100456.09;20764821;28;20138;-67
2023/12/20 17:06:58;;;;;;;3.17;1.25;;;;;;;18.98;67.24;100436.75;20784536;28;20098;-66
2023/12/20 17:17:00;;;;;;;2.13;0.90;;;;;;;18.97;67.08;100413.47;20786555;28;20049;-70
2023/12/20 17:27:02;;;;;;;4.35;1.15;;;;;;;19.14;66.14;100394.75;20816053;28;20111;-71
2023/12/20 17:37:04;;;;;;;2.92;0.90;;;;;;;19.19;65.93;100365.44;20813682;28;20087;-68
2023/12/20 17:47:06;;;;;;;2.28;0.60;;;;;;;19.08;65.57;100341.41;20812847;28;20045;-67
2023/12/20 17:57:07;;;;;;;2.28;1.00;;;;;;;18.96;65.18;100325.44;20824847;28;20048;-68
2023/12/20 18:07:10;;;;;;;2.67;0.80;;;;;;;18.88;65.17;100303.78;20809956;28;20508;-67
2023/12/20 18:17:12;;;;;;;1.83;1.05;;;;;;;18.82;64.96;100285.56;20823764;28;20128;-68
2023/12/20 18:27:14;;;;;;;2.63;0.90;;;;;;;18.73;64.69;100264.94;20841494;28;20130;-68
2023/12/20 18:37:16;;;;;;;3.35;0.93;;;;;;;18.60;64.54;100249.16;20846535;28;20052;-68
2023/12/20 18:47:18;;;;;;;1.48;0.60;;;;;;;18.49;64.51;100228.69;20836516;28;20087;-68
2023/12/20 18:57:19;;;;;;;1.13;0.60;;;;;;;18.43;64.46;100205.06;20844172;28;20508;-68
2023/12/20 19:07:21;;;;;;;1.38;0.65;;;;;;;18.26;63.97;100188.78;20830686;28;20052;-68
2023/12/20 19:17:23;;;;;;;0.65;0.43;;;;;;;18.33;64.01;100195.22;20843123;28;20056;-68
2023/12/20 19:27:25;;;;;;;1.58;0.40;;;;;;;18.27;63.79;100163.53;20843910;28;20057;-68
2023/12/20 19:37:26;;;;;;;1.27;0.60;;;;;;;18.21;63.73;100156.91;20849711;28;20057;-68
2023/12/20 19:47:28;;;;;;;1.30;0.45;;;;;;;18.15;63.76;100159.41;20829185;28;20543;-68
2023/12/20 19:57:31;;;;;;;0.35;0.20;;;;;;;18.10;63.92;100138.31;20833153;28;20046;-68
2023/12/20 20:07:33;;;;;;;1.50;0.50;;;;;;;18.04;64.00;100131.69;20817821;28;20049;-68
2023/12/20 20:17:35;;;;;;;0.80;0.35;;;;;;;18.02;63.96;100128.28;20826163;28;20045;-68
2023/12/20 20:27:37;;;;;;;0.77;0.40;;;;;;;17.94;64.00;100115.59;20815781;28;20122;-68
2023/12/20 20:37:39;;;;;;;0.55;0.30;;;;;;;17.93;64.22;100088.81;20799722;28;20057;-68
2023/12/20 20:47:41;;;;;;;0.47;0.25;;;;;;;17.93;64.05;100103.13;20837230;28;20409;-68
2023/12/20 20:57:47;;;;;;;0.40;0.30;;;;;;;17.88;64.09;100088.44;20853545;28;20050;-68
2023/12/20 21:07:49;;;;;;;0.75;0.25;;;;;;;17.87;64.07;100057.13;20793139;28;20060;-68
2023/12/20 21:17:51;;;;;;;1.13;0.57;;;;;;;17.88;63.96;100048.06;20847329;28;20429;-68
2023/12/20 21:27:53;;;;;;;0.38;0.28;;;;;;;17.88;63.60;100062.34;20846569;28;20467;-68
2023/12/20 21:37:55;;;;;;;0.30;0.20;;;;;;;17.90;63.67;100087.28;20814090;28;20660;-68
2023/12/20 21:47:57;;;;;;;1.95;0.40;;;;;;;17.92;63.57;100079.03;20850552;28;20049;-68
2023/12/20 21:57:59;;;;;;;0.95;0.35;;;;;;;17.92;63.63;100084.44;20819401;28;20404;-68
2023/12/20 22:08:01;;;;;;;0.45;0.30;;;;;;;17.93;63.51;100069.97;20831434;28;20378;-68
2023/12/20 22:18:03;;;;;;;1.20;0.65;;;;;;;17.92;63.61;100052.97;20819052;28;20132;-68
2023/12/20 22:28:05;;;;;;;1.10;0.38;;;;;;;17.92;63.48;100052.13;20851278;28;20546;-68
2023/12/20 22:38:07;;;;;;;0.77;0.40;;;;;;;17.90;63.63;100033.44;20823185;28;20053;-68
2023/12/20 22:48:09;;;;;;;0.82;0.35;;;;;;;17.90;63.65;100028.06;20850771;28;20496;-68
2023/12/20 22:58:11;;;;;;;1.67;0.47;;;;;;;17.89;63.58;100009.34;20870367;28;20095;-68
2023/12/20 23:08:13;;;;;;;0.80;0.47;;;;;;;17.90;63.48;99997.56;20844793;28;20045;-68
2023/12/20 23:18:14;;;;;;;1.17;0.40;;;;;;;17.92;63.42;99976.72;20833101;28;20049;-68
2023/12/20 23:28:16;;;;;;;1.55;0.60;;;;;;;17.93;63.57;99968.50;20829048;28;20052;-68
2023/12/20 23:38:18;;;;;;;1.17;0.40;;;;;;;17.89;63.79;99971.66;20814909;28;20049;-68
2023/12/20 23:48:20;;;;;;;1.40;0.60;;;;;;;17.83;64.16;99975.81;20820791;28;20057;-68
2023/12/20 23:58:22;;;;;;;1.73;0.60;;;;;;;17.78;64.35;99960.16;20797170;28;20048;-68
